createdAt,value
2022-10-08T00:01:19.119Z,81.08
2022-10-08T00:03:50.608Z,80.96
2022-10-08T00:06:28.126Z,80.89
2022-10-08T00:09:05.751Z,80.48
2022-10-08T00:11:36.083Z,80.15
2022-10-08T00:14:03.624Z,80.88
2022-10-08T00:16:40.656Z,80.86
2022-10-08T00:19:14.338Z,80.77
2022-10-08T00:21:44.374Z,80.61
2022-10-08T00:24:15.399Z,80.66
2022-10-08T00:26:44.069Z,80.38
2022-10-08T00:29:15.241Z,80.45
2022-10-08T00:31:45.313Z,80.28
2022-10-08T00:34:16.316Z,80.49
2022-10-08T00:36:43.469Z,80.17
2022-10-08T00:39:17.834Z,80.47
2022-10-08T00:41:52.146Z,80.23
2022-10-08T00:44:46.863Z,80.72
2022-10-08T00:47:33.089Z,80.78
2022-10-08T00:50:16.986Z,80.73
2022-10-08T00:52:55.335Z,80.23
2022-10-08T00:55:27.943Z,80.51
2022-10-08T00:58:01.952Z,80.47
2022-10-08T01:00:31.001Z,80.72
2022-10-08T01:02:57.845Z,80.25
2022-10-08T01:05:58.749Z,80.71
2022-10-08T01:08:35.740Z,81.03
2022-10-08T01:11:37.310Z,80.81
2022-10-08T01:14:35.960Z,80.87
2022-10-08T01:17:12.510Z,80.77
2022-10-08T01:19:53.693Z,81.15
2022-10-08T01:22:51.490Z,80.56
2022-10-08T01:25:36.114Z,81.13
2022-10-08T01:28:14.939Z,81.11
2022-10-08T01:31:09.509Z,81.62
2022-10-08T01:33:50.804Z,81.51
2022-10-08T01:36:20.737Z,81.59
2022-10-08T01:39:01.289Z,81.10
2022-10-08T01:41:31.081Z,81.32
2022-10-08T01:44:13.769Z,80.74
2022-10-08T01:46:44.207Z,81.18
2022-10-08T01:49:17.418Z,81.51
2022-10-08T01:52:04.203Z,81.00
2022-10-08T01:54:33.156Z,80.55
2022-10-08T01:57:03.059Z,81.21
2022-10-08T01:59:45.927Z,81.16
2022-10-08T02:02:25.299Z,81.19
2022-10-08T02:04:55.533Z,81.41
2022-10-08T02:07:30.198Z,81.34
2022-10-08T02:10:17.023Z,81.13
2022-10-08T02:12:44.960Z,81.21
2022-10-08T02:15:42.287Z,81.40
2022-10-08T02:18:20.839Z,81.45
2022-10-08T02:21:09.018Z,81.24
2022-10-08T02:23:53.583Z,81.45
2022-10-08T02:26:29.730Z,81.44
2022-10-08T02:29:02.432Z,81.62
2022-10-08T02:31:43.566Z,81.12
2022-10-08T02:34:37.827Z,80.92
2022-10-08T02:37:14.264Z,80.89
2022-10-08T02:39:49.300Z,81.03
2022-10-08T02:42:22.374Z,80.82
2022-10-08T02:45:31.648Z,80.64
2022-10-08T02:48:06.778Z,80.35
2022-10-08T02:50:39.682Z,80.43
2022-10-08T02:53:07.020Z,80.70
2022-10-08T02:55:48.953Z,80.51
2022-10-08T02:58:16.027Z,80.49
2022-10-08T03:01:03.790Z,80.12
2022-10-08T03:03:36.010Z,80.52
2022-10-08T03:06:07.784Z,80.46
2022-10-08T03:08:41.070Z,80.03
2022-10-08T03:11:08.333Z,80.43
2022-10-08T03:13:42.416Z,80.03
2022-10-08T03:16:15.520Z,80.15
2022-10-08T03:18:43.352Z,80.40
2022-10-08T03:21:15.713Z,80.80
2022-10-08T03:23:42.528Z,80.59
2022-10-08T03:26:09.309Z,80.11
2022-10-08T03:28:36.259Z,80.24
2022-10-08T03:31:06.863Z,80.26
2022-10-08T03:33:34.080Z,80.44
2022-10-08T03:36:00.878Z,80.66
2022-10-08T03:38:28.014Z,80.49
2022-10-08T03:40:57.590Z,79.98
2022-10-08T03:43:25.095Z,80.17
2022-10-08T03:45:54.225Z,80.51
2022-10-08T03:48:22.726Z,80.43
2022-10-08T03:51:01.730Z,80.40
2022-10-08T03:53:32.346Z,80.61
2022-10-08T03:56:04.672Z,80.32
2022-10-08T03:58:31.611Z,80.36
2022-10-08T04:01:01.032Z,79.96
2022-10-08T04:03:29.158Z,80.02
2022-10-08T04:05:56.204Z,80.18
2022-10-08T04:08:23.404Z,79.89
2022-10-08T04:10:50.214Z,80.33
2022-10-08T04:13:17.658Z,80.39
2022-10-08T04:15:47.261Z,80.26
2022-10-08T04:18:14.881Z,80.07
2022-10-08T04:20:42.879Z,79.42
2022-10-08T04:23:10.661Z,79.35
2022-10-08T04:25:38.088Z,80.41
2022-10-08T04:28:06.192Z,79.92
2022-10-08T04:30:33.228Z,80.34
2022-10-08T04:33:00.000Z,79.67
2022-10-08T04:35:26.844Z,80.17
2022-10-08T04:37:53.600Z,80.47
2022-10-08T04:40:20.390Z,80.16
2022-10-08T04:42:52.012Z,79.83
2022-10-08T04:45:18.895Z,79.92
2022-10-08T04:47:45.841Z,80.01
2022-10-08T04:50:12.625Z,79.87
2022-10-08T04:52:39.421Z,79.74
2022-10-08T04:55:07.162Z,80.02
2022-10-08T04:57:33.934Z,79.96
2022-10-08T05:00:17.698Z,79.63
2022-10-08T05:02:46.134Z,80.11
2022-10-08T05:05:13.468Z,80.29
2022-10-08T05:07:40.247Z,80.18
2022-10-08T05:10:07.727Z,80.44
2022-10-08T05:12:34.489Z,80.38
2022-10-08T05:15:01.337Z,80.12
2022-10-08T05:17:28.140Z,80.18
2022-10-08T05:19:54.930Z,79.88
2022-10-08T05:22:21.775Z,79.87
2022-10-08T05:24:48.571Z,80.05
2022-10-08T05:27:15.341Z,80.24
2022-10-08T05:29:42.118Z,80.24
2022-10-08T05:32:08.903Z,79.89
2022-10-08T05:34:35.700Z,80.00
2022-10-08T05:37:02.533Z,80.02
2022-10-08T05:39:29.298Z,80.01
2022-10-08T05:41:56.121Z,80.04
2022-10-08T05:44:23.023Z,79.72
2022-10-08T05:46:49.886Z,79.80
2022-10-08T05:49:20.854Z,79.71
2022-10-08T05:51:48.937Z,79.00
2022-10-08T05:54:17.437Z,78.74
2022-10-08T05:56:44.628Z,79.21
2022-10-08T05:59:22.887Z,78.90
2022-10-08T06:01:50.694Z,79.74
2022-10-08T06:04:18.605Z,79.55
2022-10-08T06:06:45.697Z,79.28
2022-10-08T06:09:18.782Z,79.32
2022-10-08T06:11:46.372Z,78.86
2022-10-08T06:14:16.770Z,78.53
2022-10-08T06:16:43.923Z,78.84
2022-10-08T06:19:11.140Z,78.81
2022-10-08T06:21:38.265Z,77.68
2022-10-08T06:24:08.926Z,77.36
2022-10-08T06:26:39.661Z,76.60
2022-10-08T06:29:12.362Z,76.33
2022-10-08T06:31:39.248Z,75.33
2022-10-08T06:34:06.356Z,75.13
2022-10-08T06:36:36.737Z,75.53
2022-10-08T06:39:11.343Z,75.68
2022-10-08T06:41:38.449Z,75.34
2022-10-08T06:44:08.205Z,74.29
2022-10-08T06:46:36.051Z,73.76
2022-10-08T06:49:03.699Z,73.21
2022-10-08T06:51:30.759Z,72.05
2022-10-08T06:54:05.789Z,70.92
2022-10-08T06:56:35.498Z,69.96
2022-10-08T06:59:02.453Z,68.94
2022-10-08T07:01:33.172Z,70.07
2022-10-08T07:04:01.486Z,69.30
2022-10-08T07:06:29.124Z,68.98
2022-10-08T07:08:59.358Z,69.38
2022-10-08T07:11:27.411Z,69.52
2022-10-08T07:13:55.640Z,69.88
2022-10-08T07:16:25.204Z,70.32
2022-10-08T07:18:56.022Z,69.97
2022-10-08T07:21:23.402Z,70.45
2022-10-08T07:23:51.390Z,69.38
2022-10-08T07:26:22.237Z,69.33
2022-10-08T07:28:59.964Z,68.71
2022-10-08T07:31:31.177Z,69.68
2022-10-08T07:34:00.031Z,70.69
2022-10-08T07:36:28.680Z,71.07
2022-10-08T07:39:01.963Z,70.09
2022-10-08T07:41:30.226Z,71.97
2022-10-08T07:43:59.737Z,73.06
2022-10-08T07:46:35.566Z,72.65
2022-10-08T07:49:04.643Z,71.46
2022-10-08T07:51:34.205Z,72.82
2022-10-08T07:54:03.110Z,72.27
2022-10-08T07:56:31.219Z,71.19
2022-10-08T07:58:59.850Z,72.68
2022-10-08T08:01:29.342Z,72.74
2022-10-08T08:04:04.762Z,71.92
2022-10-08T08:06:33.894Z,72.11
2022-10-08T08:09:01.420Z,71.35
2022-10-08T08:11:28.418Z,70.80
2022-10-08T08:13:55.239Z,71.49
2022-10-08T08:16:28.114Z,71.00
2022-10-08T08:19:00.692Z,71.37
2022-10-08T08:21:36.169Z,70.76
2022-10-08T08:24:12.109Z,71.99
2022-10-08T08:26:41.430Z,71.38
2022-10-08T08:29:14.741Z,70.99
2022-10-08T08:31:44.679Z,70.64
2022-10-08T08:34:16.569Z,70.35
2022-10-08T08:36:46.689Z,71.16
2022-10-08T08:39:26.245Z,71.32
2022-10-08T08:42:04.986Z,72.55
2022-10-08T08:44:38.070Z,73.56
2022-10-08T08:47:15.701Z,73.47
2022-10-08T08:49:52.329Z,72.00
2022-10-08T08:52:25.565Z,71.95
2022-10-08T08:54:54.617Z,72.32
2022-10-08T08:57:40.749Z,72.44
2022-10-08T09:00:24.011Z,72.20
2022-10-08T09:03:05.781Z,72.80
2022-10-08T09:05:39.723Z,72.78
2022-10-08T09:08:32.199Z,72.97
2022-10-08T09:11:04.909Z,71.80
2022-10-08T09:13:40.322Z,71.78
2022-10-08T09:16:11.304Z,71.43
2022-10-08T09:18:38.301Z,71.64
2022-10-08T09:21:05.602Z,71.55
2022-10-08T09:23:32.386Z,71.37
2022-10-08T09:26:04.271Z,71.30
2022-10-08T09:28:47.369Z,70.11
2022-10-08T09:31:40.345Z,70.19
2022-10-08T09:34:13.288Z,70.05
2022-10-08T09:37:04.941Z,70.07
2022-10-08T09:39:37.309Z,69.40
2022-10-08T09:42:19.779Z,69.81
2022-10-08T09:44:50.456Z,70.24
2022-10-08T09:47:23.124Z,69.75
2022-10-08T09:50:19.239Z,69.79
2022-10-08T09:52:51.084Z,69.98
2022-10-08T09:55:27.029Z,69.05
2022-10-08T09:58:00.262Z,69.62
2022-10-08T10:00:35.371Z,68.69
2022-10-08T10:03:05.589Z,69.01
2022-10-08T10:05:35.334Z,69.06
2022-10-08T10:08:02.812Z,68.17
2022-10-08T10:10:40.857Z,68.45
2022-10-08T10:13:20.396Z,68.03
2022-10-08T10:16:04.890Z,67.44
2022-10-08T10:18:48.251Z,67.82
2022-10-08T10:21:24.104Z,66.63
2022-10-08T10:24:19.505Z,66.36
2022-10-08T10:26:48.678Z,66.02
2022-10-08T10:29:22.898Z,66.86
2022-10-08T10:32:00.404Z,67.60
2022-10-08T10:34:28.937Z,67.51
2022-10-08T10:37:01.893Z,67.10
2022-10-08T10:39:46.712Z,67.34
2022-10-08T10:42:33.664Z,65.98
2022-10-08T10:45:28.165Z,67.16
2022-10-08T10:47:55.008Z,66.82
2022-10-08T10:50:53.362Z,66.39
2022-10-08T10:53:40.049Z,66.04
2022-10-08T10:56:17.498Z,67.19
2022-10-08T10:59:22.453Z,66.56
2022-10-08T11:02:00.976Z,66.01
2022-10-08T11:05:06.317Z,65.74
2022-10-08T11:07:54.602Z,66.82
2022-10-08T11:10:51.960Z,66.81
2022-10-08T11:13:41.045Z,67.22
2022-10-08T11:16:48.442Z,65.92
2022-10-08T11:19:44.795Z,66.11
2022-10-08T11:22:40.496Z,65.39
2022-10-08T11:25:55.770Z,65.88
2022-10-08T11:28:44.443Z,65.99
2022-10-08T11:31:34.225Z,66.69
2022-10-08T11:34:03.576Z,66.55
2022-10-08T11:37:17.290Z,66.21
2022-10-08T11:40:19.570Z,64.60
2022-10-08T11:43:09.700Z,64.81
2022-10-08T11:45:41.642Z,65.55
2022-10-08T11:48:35.857Z,66.01
2022-10-08T11:51:30.940Z,66.12
2022-10-08T11:54:34.856Z,65.80
2022-10-08T11:57:49.304Z,65.53
2022-10-08T12:00:53.261Z,65.72
2022-10-08T12:03:27.510Z,65.02
2022-10-08T12:06:36.586Z,64.99
2022-10-08T12:09:07.500Z,64.51
2022-10-08T12:11:40.049Z,64.77
2022-10-08T12:14:13.181Z,63.87
2022-10-08T12:16:49.243Z,64.61
2022-10-08T12:19:34.750Z,64.00
2022-10-08T12:22:16.643Z,64.21
2022-10-08T12:24:50.199Z,64.52
2022-10-08T12:27:17.456Z,64.58
2022-10-08T12:30:05.633Z,64.73
2022-10-08T12:32:54.829Z,63.43
2022-10-08T12:35:22.898Z,63.63
2022-10-08T12:38:30.541Z,63.07
2022-10-08T12:41:15.364Z,63.23
2022-10-08T12:44:08.367Z,64.01
2022-10-08T12:46:59.766Z,64.78
2022-10-08T12:49:33.774Z,64.22
2022-10-08T12:52:12.053Z,65.00
2022-10-08T12:54:46.676Z,65.54
2022-10-08T12:57:38.951Z,65.54
2022-10-08T13:00:22.604Z,66.95
2022-10-08T13:03:07.400Z,67.67
2022-10-08T13:05:40.289Z,66.51
2022-10-08T13:08:34.658Z,66.90
2022-10-08T13:11:05.596Z,67.04
2022-10-08T13:13:38.506Z,67.46
2022-10-08T13:16:14.785Z,68.06
2022-10-08T13:18:46.752Z,68.19
2022-10-08T13:21:31.880Z,68.22
2022-10-08T13:24:00.468Z,68.68
2022-10-08T13:26:49.676Z,69.64
2022-10-08T13:29:22.602Z,69.82
2022-10-08T13:32:15.173Z,71.04
2022-10-08T13:34:54.114Z,71.29
2022-10-08T13:37:36.378Z,71.52
2022-10-08T13:40:12.248Z,71.35
2022-10-08T13:42:45.514Z,72.22
2022-10-08T13:45:22.045Z,72.85
2022-10-08T13:47:50.297Z,72.98
2022-10-08T13:50:18.485Z,74.04
2022-10-08T13:52:56.152Z,73.79
2022-10-08T13:55:32.766Z,72.63
2022-10-08T13:58:02.231Z,73.73
2022-10-08T14:00:31.573Z,73.49
2022-10-08T14:02:58.720Z,72.83
2022-10-08T14:05:28.837Z,73.67
2022-10-08T14:08:01.088Z,73.67
2022-10-08T14:10:28.278Z,73.57
2022-10-08T14:12:55.048Z,72.92
2022-10-08T14:15:22.115Z,72.17
2022-10-08T14:17:50.614Z,72.54
2022-10-08T14:20:17.596Z,73.02
2022-10-08T14:22:44.529Z,73.09
2022-10-08T14:25:25.759Z,73.17
2022-10-08T14:27:52.579Z,72.68
2022-10-08T14:30:19.789Z,73.21
2022-10-08T14:32:46.899Z,73.70
2022-10-08T14:35:14.441Z,74.19
2022-10-08T14:37:41.298Z,74.58
2022-10-08T14:40:15.285Z,74.80
2022-10-08T14:42:42.074Z,75.18
2022-10-08T14:45:09.333Z,74.92
2022-10-08T14:47:36.127Z,75.39
2022-10-08T14:50:03.537Z,74.27
2022-10-08T14:52:30.385Z,73.72
2022-10-08T14:54:57.137Z,74.16
2022-10-08T14:57:24.011Z,74.20
2022-10-08T14:59:51.013Z,74.66
2022-10-08T15:02:17.853Z,74.75
2022-10-08T15:04:44.743Z,74.43
2022-10-08T15:07:11.558Z,74.73
2022-10-08T15:09:40.459Z,74.07
2022-10-08T15:12:08.083Z,74.64
2022-10-08T15:14:38.210Z,75.15
2022-10-08T15:17:05.385Z,75.34
2022-10-08T15:19:32.174Z,76.19
2022-10-08T15:21:58.960Z,76.09
2022-10-08T15:24:25.853Z,76.47
2022-10-08T15:26:52.617Z,76.45
2022-10-08T15:29:19.524Z,76.30
2022-10-08T15:31:46.441Z,76.59
2022-10-08T15:34:17.653Z,77.06
2022-10-08T15:36:44.821Z,76.77
2022-10-08T15:39:18.488Z,77.00
2022-10-08T15:41:48.644Z,77.29
2022-10-08T15:44:29.950Z,77.37
2022-10-08T15:47:07.592Z,77.72
2022-10-08T15:49:45.769Z,77.59
2022-10-08T15:52:19.477Z,77.83
2022-10-08T15:54:46.846Z,77.46
2022-10-08T15:57:17.247Z,78.12
2022-10-08T15:59:44.274Z,77.86
2022-10-08T16:02:17.127Z,78.12
2022-10-08T16:04:46.886Z,78.22
2022-10-08T16:07:13.692Z,78.71
2022-10-08T16:09:40.578Z,78.58
2022-10-08T16:12:07.582Z,78.35
2022-10-08T16:14:34.603Z,78.63
2022-10-08T16:17:03.016Z,78.72
2022-10-08T16:19:30.581Z,79.06
2022-10-08T16:21:58.735Z,78.93
2022-10-08T16:24:25.656Z,79.11
2022-10-08T16:26:52.634Z,78.89
2022-10-08T16:29:19.586Z,78.85
2022-10-08T16:31:48.181Z,78.26
2022-10-08T16:34:22.127Z,78.08
2022-10-08T16:36:49.794Z,77.42
2022-10-08T16:39:20.710Z,75.69
2022-10-08T16:41:49.168Z,74.63
2022-10-08T16:44:19.760Z,73.90
2022-10-08T16:46:50.378Z,73.17
2022-10-08T16:49:25.400Z,72.75
2022-10-08T16:52:05.105Z,71.66
2022-10-08T16:54:32.852Z,71.68
2022-10-08T16:57:00.032Z,71.74
2022-10-08T16:59:29.337Z,71.83
2022-10-08T17:01:58.728Z,71.26
2022-10-08T17:04:28.607Z,71.15
2022-10-08T17:06:55.763Z,71.28
2022-10-08T17:09:22.668Z,71.96
2022-10-08T17:11:50.133Z,71.77
2022-10-08T17:14:16.963Z,72.01
2022-10-08T17:16:45.526Z,72.81
2022-10-08T17:19:12.894Z,72.82
2022-10-08T17:21:40.159Z,72.39
2022-10-08T17:24:07.391Z,72.56
2022-10-08T17:26:34.201Z,72.22
2022-10-08T17:29:07.167Z,72.58
2022-10-08T17:31:35.052Z,72.14
2022-10-08T17:34:04.401Z,72.33
2022-10-08T17:36:37.806Z,72.44
2022-10-08T17:39:08.451Z,72.34
2022-10-08T17:41:38.455Z,72.93
2022-10-08T17:44:08.081Z,72.97
2022-10-08T17:46:46.724Z,73.49
2022-10-08T17:49:19.305Z,73.66
2022-10-08T17:51:47.422Z,73.50
2022-10-08T17:54:18.904Z,73.78
2022-10-08T17:56:47.042Z,73.90
2022-10-08T17:59:19.127Z,73.69
2022-10-08T18:01:46.395Z,73.99
2022-10-08T18:04:16.771Z,74.09
2022-10-08T18:06:46.436Z,74.07
2022-10-08T18:09:19.827Z,74.27
2022-10-08T18:11:51.931Z,74.29
2022-10-08T18:14:20.516Z,74.34
2022-10-08T18:16:48.688Z,74.28
2022-10-08T18:19:16.370Z,73.69
2022-10-08T18:21:43.412Z,73.75
2022-10-08T18:24:10.890Z,73.91
2022-10-08T18:26:37.802Z,73.93
2022-10-08T18:29:10.677Z,74.47
2022-10-08T18:31:40.105Z,74.72
2022-10-08T18:34:11.714Z,74.97
2022-10-08T18:36:39.616Z,74.73
2022-10-08T18:39:18.876Z,74.90
2022-10-08T18:41:51.400Z,75.29
2022-10-08T18:44:22.217Z,75.31
2022-10-08T18:46:49.665Z,75.55
2022-10-08T18:49:21.682Z,75.64
2022-10-08T18:51:49.936Z,75.87
2022-10-08T18:54:17.077Z,75.81
2022-10-08T18:56:43.905Z,76.07
2022-10-08T18:59:15.831Z,76.26
2022-10-08T19:01:47.910Z,76.20
2022-10-08T19:04:18.381Z,76.20
2022-10-08T19:06:47.372Z,76.09
2022-10-08T19:09:15.153Z,76.06
2022-10-08T19:11:46.248Z,76.66
2022-10-08T19:14:16.394Z,76.67
2022-10-08T19:16:44.483Z,76.57
2022-10-08T19:19:24.269Z,76.53
2022-10-08T19:21:52.221Z,76.83
2022-10-08T19:24:23.193Z,76.40
2022-10-08T19:26:50.970Z,76.85
2022-10-08T19:29:29.351Z,76.68
2022-10-08T19:31:57.752Z,76.62
2022-10-08T19:34:27.075Z,76.46
2022-10-08T19:36:54.267Z,76.84
2022-10-08T19:39:27.709Z,76.52
2022-10-08T19:41:54.673Z,76.39
2022-10-08T19:44:21.673Z,76.60
2022-10-08T19:46:49.193Z,76.65
2022-10-08T19:49:16.558Z,76.31
2022-10-08T19:51:44.085Z,76.32
2022-10-08T19:54:11.718Z,76.28
2022-10-08T19:56:38.877Z,76.42
2022-10-08T19:59:06.280Z,76.61
2022-10-08T20:01:37.165Z,76.61
2022-10-08T20:04:06.302Z,76.76
2022-10-08T20:06:39.002Z,76.68
2022-10-08T20:09:11.739Z,77.00
2022-10-08T20:11:38.727Z,76.79
2022-10-08T20:14:05.817Z,76.99
2022-10-08T20:16:37.175Z,77.14
2022-10-08T20:19:16.836Z,77.24
2022-10-08T20:21:44.238Z,77.10
2022-10-08T20:24:11.373Z,77.27
2022-10-08T20:26:40.625Z,76.91
2022-10-08T20:29:20.092Z,77.10
2022-10-08T20:31:51.174Z,76.89
2022-10-08T20:34:23.475Z,77.62
2022-10-08T20:36:51.255Z,77.55
2022-10-08T20:39:20.950Z,77.41
2022-10-08T20:41:48.474Z,77.78
2022-10-08T20:44:16.181Z,77.83
2022-10-08T20:46:43.235Z,78.31
2022-10-08T20:49:12.978Z,77.93
2022-10-08T20:51:41.580Z,77.68
2022-10-08T20:54:11.277Z,77.67
2022-10-08T20:56:40.753Z,77.44
2022-10-08T20:59:10.110Z,77.55
2022-10-08T21:01:38.772Z,77.15
2022-10-08T21:04:06.881Z,77.13
2022-10-08T21:06:46.744Z,77.62
2022-10-08T21:09:16.282Z,77.49
2022-10-08T21:11:45.845Z,77.63
2022-10-08T21:14:17.942Z,77.44
2022-10-08T21:16:45.136Z,77.58
2022-10-08T21:19:16.574Z,78.17
2022-10-08T21:21:43.417Z,78.13
2022-10-08T21:24:10.676Z,78.00
2022-10-08T21:26:40.765Z,77.73
2022-10-08T21:29:12.209Z,77.48
2022-10-08T21:31:40.668Z,77.76
2022-10-08T21:34:08.111Z,77.25
2022-10-08T21:36:38.121Z,77.36
2022-10-08T21:39:07.353Z,77.01
2022-10-08T21:41:36.842Z,76.20
2022-10-08T21:44:07.117Z,75.94
2022-10-08T21:46:38.231Z,77.22
2022-10-08T21:49:13.590Z,77.49
2022-10-08T21:51:40.834Z,77.73
2022-10-08T21:54:08.287Z,77.81
2022-10-08T21:56:38.213Z,77.98
2022-10-08T21:59:07.610Z,78.18
2022-10-08T22:01:39.601Z,78.58
2022-10-08T22:04:19.262Z,78.65
2022-10-08T22:06:49.441Z,78.80
2022-10-08T22:09:21.451Z,79.03
2022-10-08T22:11:49.562Z,79.32
2022-10-08T22:14:17.941Z,79.34
2022-10-08T22:16:44.982Z,79.03
2022-10-08T22:19:12.053Z,78.64
2022-10-08T22:21:39.200Z,78.62
2022-10-08T22:24:06.292Z,78.26
2022-10-08T22:26:37.662Z,78.32
2022-10-08T22:29:06.066Z,78.09
2022-10-08T22:31:33.796Z,77.83
2022-10-08T22:34:00.789Z,77.73
2022-10-08T22:36:30.950Z,77.61
2022-10-08T22:38:58.760Z,77.77
2022-10-08T22:41:29.063Z,77.53
2022-10-08T22:43:56.690Z,77.44
2022-10-08T22:46:31.170Z,76.77
2022-10-08T22:49:05.707Z,76.58
2022-10-08T22:51:32.615Z,75.81
2022-10-08T22:53:59.614Z,76.37
2022-10-08T22:56:29.603Z,76.55
2022-10-08T22:58:58.109Z,76.52
2022-10-08T23:01:26.546Z,76.54
2022-10-08T23:03:53.934Z,76.66
2022-10-08T23:06:28.461Z,76.70
2022-10-08T23:09:07.845Z,76.96
2022-10-08T23:11:35.286Z,77.24
2022-10-08T23:14:02.617Z,77.13
2022-10-08T23:16:31.813Z,77.58
2022-10-08T23:19:04.476Z,77.98
2022-10-08T23:21:31.980Z,78.03
2022-10-08T23:23:59.211Z,78.12
2022-10-08T23:26:27.454Z,77.93
2022-10-08T23:29:00.579Z,78.27
2022-10-08T23:31:36.722Z,77.64
2022-10-08T23:34:05.361Z,77.60
2022-10-08T23:36:41.911Z,77.63
2022-10-08T23:39:13.497Z,78.00
2022-10-08T23:41:40.563Z,78.21
2022-10-08T23:44:08.791Z,78.16
2022-10-08T23:46:35.848Z,78.33
2022-10-08T23:49:02.855Z,78.44
2022-10-08T23:51:32.031Z,78.21
2022-10-08T23:53:58.919Z,78.29
2022-10-08T23:56:25.726Z,78.09
2022-10-08T23:58:52.547Z,78.26
